Tropical Cyclones
[Index]
Main Index Home Page Stock Weather Photos Extreme Storms Discussion Storm News and Storm Chasing Reports Tropical Cyclones / Hurricanes / Typhoons Weather Data and Links Wild Fires / Bushfires Weather Observation Techniques Weather Picture Catalogue Tornado Pictures and Reports Stock Video Footage and DVDs for sale
Season 1979-1980 Tropical Cyclone SIMON Track Map
Season 1979-1980 Summaries: [BoM-AU] [JTWC-AU] [JTWC-SIO] [JTWC-SPAC] [JTWC-SH]
<<- Previous TC | JTWC 1979-1980 Season | Next TC ->>

click for intensity scale information  Lat/long Grid: Show Hide

 Date Labels: Show Hide

Joint Typhoon Warning Centre Cyclone Data

Name: SIMON

21 Feb 1980 00:00 UTC to 03 Mar 1980 12:00 UTC

    date/time    lat    long     hPa   cat  kts
1980-02-21 00   16.0   155.0                  35          
1980-02-21 06   16.5   155.1                  35          
1980-02-21 12   17.0   154.8                  35          
1980-02-21 18   17.3   154.1            1     40          
1980-02-22 00   17.7   153.5            1     50          
1980-02-22 06   18.5   153.1            2     65          
1980-02-22 12   19.3   152.7            3     80          
1980-02-22 18   20.1   152.3            3     95          
1980-02-23 00   20.8   151.8            4    100          
1980-02-23 06   21.3   151.4            4    100          
1980-02-23 12   21.6   151.2            3     95          
1980-02-23 18   22.0   151.4            3     90          
1980-02-24 00   22.3   151.8            3     85          
1980-02-24 06   22.6   151.4            3     80          
1980-02-24 12   22.8   151.2            3     80          
1980-02-24 18   22.9   151.6            3     75          
1980-02-25 00   23.0   152.0            3     75          
1980-02-25 06   23.0   152.3            3     75          
1980-02-25 12   23.1   152.6            2     70          
1980-02-25 18   23.2   152.6            2     70          
1980-02-26 00   23.4   152.5            2     70          
1980-02-26 06   23.7   152.8            2     65          
1980-02-26 12   24.0   153.1            2     55          
1980-02-26 18   24.3   153.2            1     50          
1980-02-27 00   24.7   153.5            1     45          
1980-02-27 06   25.5   154.4            1     45          
1980-02-27 12   26.5   155.4            1     45          
1980-02-27 18   27.3   156.3            1     50          
1980-02-28 00   28.1   157.2            1     50          
1980-02-28 06   29.4   158.4            1     50          
1980-02-28 12   31.0   160.0            1     50          
1980-02-28 18   32.8   162.0            1     50          
1980-02-29 00   34.5   164.0            1     50          
1980-02-29 06   35.6   165.7            1     50          
1980-02-29 12   36.3   167.3            1     50          
1980-02-29 18   36.9   168.7            1     50          
1980-03-01 00   37.5   170.0            1     45          
1980-03-01 06   38.1   171.3            1     45          
1980-03-01 12   38.5   172.5            1     45          
1980-03-01 18   38.5   173.5            1     45          
1980-03-02 00   38.5   174.5            1     45          
1980-03-02 06   38.5   178.1            1     40          
1980-03-02 12   38.5   178.0W           1     40          
1980-03-02 18   38.3   176.4W                             
1980-03-03 00   38.0   175.5W                             
1980-03-03 06   37.6   175.1W                             
1980-03-03 12   37.0   175.0W                             
Winds are 1-min average.

Tropical cyclone tracks developed by Michael Bath using data from the Joint Typhoon Warning Centre Best Tracks and Google Maps.


[Australian Severe Weather index] [Copyright Notice] [Email Contacts] [Search This Site] [Privacy Policy]
Document: tropical_cyclone_simon.htm Updated: 18 September 2016